createdAt,value
2019-03-23T00:00:44.881Z,25.33
2019-03-23T00:03:16.877Z,26.60
2019-03-23T00:05:47.774Z,27.03
2019-03-23T00:08:18.738Z,25.43
2019-03-23T00:10:49.579Z,26.33
2019-03-23T00:13:20.436Z,25.97
2019-03-23T00:15:51.330Z,28.70
2019-03-23T00:18:22.186Z,25.50
2019-03-23T00:20:53.000Z,26.23
2019-03-23T00:23:23.882Z,24.33
2019-03-23T00:25:54.768Z,26.43
2019-03-23T00:28:25.663Z,24.03
2019-03-23T00:30:56.509Z,22.80
2019-03-23T00:33:27.373Z,25.43
2019-03-23T00:35:58.201Z,28.77
2019-03-23T00:38:29.118Z,26.10
2019-03-23T00:40:59.966Z,24.07
2019-03-23T00:43:30.899Z,24.30
2019-03-23T00:46:01.811Z,24.53
2019-03-23T00:48:32.689Z,26.17
2019-03-23T00:51:03.559Z,23.23
2019-03-23T00:53:34.425Z,25.67
2019-03-23T00:56:05.273Z,25.63
2019-03-23T00:58:36.139Z,26.33
2019-03-23T01:01:07.041Z,25.53
2019-03-23T01:03:37.899Z,25.50
2019-03-23T01:06:08.783Z,26.20
2019-03-23T01:08:39.676Z,26.73
2019-03-23T01:11:10.502Z,25.20
2019-03-23T01:13:41.417Z,25.00
2019-03-23T01:16:12.244Z,24.70
2019-03-23T01:18:43.110Z,28.37
2019-03-23T01:21:13.987Z,29.47
2019-03-23T01:23:44.868Z,28.33
2019-03-23T01:26:15.779Z,28.03
2019-03-23T01:28:46.709Z,27.47
2019-03-23T01:31:17.541Z,28.73
2019-03-23T01:33:48.406Z,31.33
2019-03-23T01:36:19.258Z,27.37
2019-03-23T01:38:50.110Z,25.83
2019-03-23T01:41:21.042Z,27.03
2019-03-23T01:43:51.897Z,27.03
2019-03-23T01:46:22.737Z,28.00
2019-03-23T01:48:53.605Z,26.17
2019-03-23T01:51:24.498Z,26.33
2019-03-23T01:53:55.418Z,24.30
2019-03-23T01:56:26.273Z,25.70
2019-03-23T01:58:57.162Z,27.03
2019-03-23T02:01:28.176Z,25.63
2019-03-23T02:03:59.190Z,24.20
2019-03-23T02:06:30.092Z,24.07
2019-03-23T02:09:00.978Z,24.30
2019-03-23T02:11:32.558Z,23.37
2019-03-23T02:14:03.447Z,22.43
2019-03-23T02:16:34.281Z,23.33
2019-03-23T02:19:05.201Z,23.57
2019-03-23T02:21:36.077Z,21.43
2019-03-23T02:24:07.045Z,22.27
2019-03-23T02:26:38.135Z,25.27
2019-03-23T02:29:09.041Z,24.27
2019-03-23T02:31:41.024Z,26.33
2019-03-23T02:34:11.918Z,25.53
2019-03-23T02:36:42.940Z,26.13
2019-03-23T02:39:13.918Z,26.80
2019-03-23T02:41:44.791Z,26.70
2019-03-23T02:44:15.686Z,25.83
2019-03-23T02:46:47.618Z,24.17
2019-03-23T02:49:18.511Z,24.02
2019-03-23T02:51:49.467Z,27.50
2019-03-23T02:54:20.404Z,26.67
2019-03-23T02:56:51.441Z,25.70
2019-03-23T02:59:22.385Z,24.17
2019-03-23T03:01:53.242Z,23.50
2019-03-23T03:04:24.095Z,23.83
2019-03-23T03:06:54.949Z,25.57
2019-03-23T03:09:25.920Z,22.93
2019-03-23T03:11:56.758Z,25.10
2019-03-23T03:14:27.625Z,26.40
2019-03-23T03:16:58.466Z,24.00
2019-03-23T03:19:29.354Z,23.13
2019-03-23T03:22:00.208Z,24.63
2019-03-23T03:24:31.056Z,26.33
2019-03-23T03:27:01.892Z,25.90
2019-03-23T03:29:32.749Z,25.63
2019-03-23T03:32:03.760Z,26.67
2019-03-23T03:34:34.619Z,24.83
2019-03-23T03:37:05.623Z,26.43
2019-03-23T03:39:36.492Z,25.77
2019-03-23T03:42:07.323Z,28.20
2019-03-23T03:44:38.168Z,25.13
2019-03-23T03:47:09.029Z,27.30
2019-03-23T03:49:39.924Z,27.03
2019-03-23T03:52:10.755Z,29.53
2019-03-23T03:54:41.624Z,28.33
2019-03-23T03:57:12.448Z,29.73
2019-03-23T03:59:43.316Z,29.63
2019-03-23T04:02:16.339Z,30.10
2019-03-23T04:04:47.273Z,29.13
2019-03-23T04:07:18.125Z,30.30
2019-03-23T04:09:48.970Z,32.50
2019-03-23T04:12:19.794Z,31.97
2019-03-23T04:14:50.739Z,32.77
2019-03-23T04:17:21.576Z,34.07
2019-03-23T04:19:52.470Z,33.10
2019-03-23T04:22:23.375Z,32.10
2019-03-23T04:24:54.249Z,32.73
2019-03-23T04:27:25.094Z,30.33
2019-03-23T04:29:55.946Z,29.90
2019-03-23T04:32:26.769Z,30.73
2019-03-23T04:34:57.626Z,32.97
2019-03-23T04:37:28.466Z,34.50
2019-03-23T04:39:59.472Z,31.57
2019-03-23T04:42:30.297Z,31.37
2019-03-23T04:45:01.152Z,30.47
2019-03-23T04:47:31.972Z,29.03
2019-03-23T04:50:02.829Z,30.60
2019-03-23T04:52:33.661Z,34.07
2019-03-23T04:55:05.499Z,33.00
2019-03-23T04:57:36.962Z,32.43
2019-03-23T05:00:08.586Z,31.70
2019-03-23T05:02:39.478Z,34.93
2019-03-23T05:05:11.062Z,32.70
2019-03-23T05:07:41.886Z,35.30
2019-03-23T05:10:13.821Z,35.03
2019-03-23T05:12:44.790Z,33.13
2019-03-23T05:15:16.823Z,31.33
2019-03-23T05:17:48.675Z,31.07
2019-03-23T05:20:38.495Z,34.93
2019-03-23T05:23:09.441Z,33.73
2019-03-23T05:25:40.529Z,35.63
2019-03-23T05:28:11.395Z,32.97
2019-03-23T05:30:42.445Z,34.07
2019-03-23T05:33:13.480Z,35.43
2019-03-23T05:35:44.936Z,36.60
2019-03-23T05:38:15.912Z,32.70
2019-03-23T05:40:46.794Z,34.25
2019-03-23T05:43:17.687Z,31.97
2019-03-23T05:45:48.694Z,32.65
2019-03-23T05:48:19.712Z,35.13
2019-03-23T05:50:51.040Z,36.40
2019-03-23T05:53:21.891Z,36.13
2019-03-23T05:55:52.982Z,38.67
2019-03-23T05:58:23.985Z,34.97
2019-03-23T06:00:54.817Z,37.07
2019-03-23T06:03:25.677Z,35.40
2019-03-23T06:05:56.513Z,35.53
2019-03-23T06:08:27.380Z,36.17
2019-03-23T06:10:58.253Z,32.90
2019-03-23T06:13:29.130Z,33.60
2019-03-23T06:15:59.967Z,31.43
2019-03-23T06:18:30.803Z,37.20
2019-03-23T06:21:01.645Z,37.50
2019-03-23T06:23:32.478Z,86.23
2019-03-23T06:26:06.427Z,108.40
2019-03-23T06:28:37.409Z,102.40
2019-03-23T06:31:08.486Z,227.83
2019-03-23T06:33:39.460Z,128.73
2019-03-23T06:36:10.343Z,33.00
2019-03-23T06:38:41.238Z,31.30
2019-03-23T06:41:12.114Z,25.87
2019-03-23T06:43:42.973Z,27.43
2019-03-23T06:46:13.865Z,28.00
2019-03-23T06:48:44.688Z,36.97
2019-03-23T06:51:15.553Z,45.60
2019-03-23T06:53:46.387Z,31.07
2019-03-23T06:56:17.269Z,29.03
2019-03-23T06:58:48.094Z,28.77
2019-03-23T07:01:18.977Z,24.17
2019-03-23T07:03:49.917Z,23.30
2019-03-23T07:06:20.891Z,23.13
2019-03-23T07:08:51.708Z,25.83
2019-03-23T07:11:22.598Z,21.83
2019-03-23T07:13:53.446Z,23.10
2019-03-23T07:16:24.987Z,22.47
2019-03-23T07:18:55.811Z,22.37
2019-03-23T07:21:26.664Z,24.23
2019-03-23T07:23:57.560Z,20.00
2019-03-23T07:26:28.421Z,20.23
2019-03-23T07:28:59.458Z,20.37
2019-03-23T07:31:30.392Z,18.53
2019-03-23T07:34:01.215Z,18.70
2019-03-23T07:36:32.101Z,20.23
2019-03-23T07:39:04.205Z,17.80
2019-03-23T07:41:35.079Z,19.87
2019-03-23T07:44:06.850Z,17.90
2019-03-23T07:46:37.729Z,18.23
2019-03-23T07:49:08.605Z,17.37
2019-03-23T07:51:39.459Z,18.07
2019-03-23T07:54:10.317Z,16.53
2019-03-23T07:56:41.139Z,21.20
2019-03-23T07:59:11.996Z,16.43
2019-03-23T08:01:42.862Z,16.62
2019-03-23T08:04:13.821Z,17.40
2019-03-23T08:06:44.774Z,17.40
2019-03-23T08:09:20.510Z,19.00
2019-03-23T08:11:48.978Z,18.98
2019-03-23T08:14:19.980Z,18.80
2019-03-23T08:16:51.116Z,17.90
2019-03-23T08:19:23.036Z,16.63
2019-03-23T08:21:54.105Z,18.53
2019-03-23T08:24:25.003Z,19.33
2019-03-23T08:26:55.890Z,17.20
2019-03-23T08:29:26.746Z,20.83
2019-03-23T08:31:57.679Z,16.75
2019-03-23T08:34:28.535Z,17.00
2019-03-23T08:36:59.536Z,18.83
2019-03-23T08:39:30.445Z,17.83
2019-03-23T08:42:01.566Z,17.90
2019-03-23T08:44:32.830Z,21.17
2019-03-23T08:47:03.859Z,18.80
2019-03-23T08:49:34.732Z,19.30
2019-03-23T08:52:05.577Z,19.63
2019-03-23T08:54:36.512Z,16.93
2019-03-23T08:57:07.422Z,22.87
2019-03-23T08:59:38.385Z,19.53
2019-03-23T09:02:09.216Z,19.20
2019-03-23T09:04:40.073Z,20.23
2019-03-23T09:07:10.922Z,18.27
2019-03-23T09:09:41.783Z,19.33
2019-03-23T09:12:15.503Z,18.73
2019-03-23T09:14:47.524Z,19.00
2019-03-23T09:17:37.173Z,21.63
2019-03-23T09:20:09.091Z,17.87
2019-03-23T09:22:41.006Z,18.00
2019-03-23T09:25:12.179Z,21.80
2019-03-23T09:27:43.161Z,18.27
2019-03-23T09:30:15.334Z,19.23
2019-03-23T09:32:46.225Z,21.13
2019-03-23T09:35:20.134Z,21.03
2019-03-23T09:37:50.989Z,21.93
2019-03-23T09:40:25.225Z,22.90
2019-03-23T09:42:56.058Z,20.10
2019-03-23T09:45:26.923Z,20.40
2019-03-23T09:47:57.770Z,20.37
2019-03-23T09:50:28.866Z,18.80
2019-03-23T09:52:59.722Z,20.30
2019-03-23T09:55:30.590Z,20.60
2019-03-23T09:58:01.412Z,25.07
2019-03-23T10:00:32.364Z,22.83
2019-03-23T10:03:03.199Z,19.70
2019-03-23T10:05:35.150Z,21.27
2019-03-23T10:08:05.990Z,21.57
2019-03-23T10:10:37.934Z,23.20
2019-03-23T10:13:08.840Z,25.10
2019-03-23T10:15:39.737Z,21.67
2019-03-23T10:18:10.621Z,22.90
2019-03-23T10:20:41.474Z,19.97
2019-03-23T10:23:12.311Z,22.23
2019-03-23T10:25:43.276Z,22.20
2019-03-23T10:28:14.116Z,22.47
2019-03-23T10:30:44.984Z,24.77
2019-03-23T10:33:15.868Z,25.80
2019-03-23T10:35:46.809Z,24.23
2019-03-23T10:38:18.655Z,23.40
2019-03-23T10:40:49.954Z,23.60
2019-03-23T10:43:20.798Z,23.93
2019-03-23T10:45:51.648Z,23.20
2019-03-23T10:48:22.469Z,23.33
2019-03-23T10:50:53.358Z,24.43
2019-03-23T10:53:24.183Z,24.67
2019-03-23T10:55:55.041Z,24.40
2019-03-23T10:58:25.910Z,23.60
2019-03-23T11:00:56.768Z,25.90
2019-03-23T11:03:27.945Z,23.23
2019-03-23T11:05:59.793Z,23.63
2019-03-23T11:08:31.586Z,22.60
2019-03-23T11:11:02.611Z,23.67
2019-03-23T11:13:33.545Z,24.90
2019-03-23T11:16:05.818Z,22.93
2019-03-23T11:18:37.832Z,24.98
2019-03-23T11:21:10.816Z,21.30
2019-03-23T11:23:42.594Z,24.37
2019-03-23T11:26:13.431Z,25.63
2019-03-23T11:28:44.271Z,27.90
2019-03-23T11:31:15.162Z,24.73
2019-03-23T11:33:46.034Z,25.48
2019-03-23T11:36:17.128Z,23.63
2019-03-23T11:38:48.164Z,23.47
2019-03-23T11:41:19.039Z,22.30
2019-03-23T11:43:53.225Z,22.13
2019-03-23T11:46:24.094Z,23.80
2019-03-23T11:48:54.996Z,23.83
2019-03-23T11:51:25.907Z,19.93
2019-03-23T11:53:56.732Z,21.87
2019-03-23T11:56:30.430Z,26.17
2019-03-23T11:59:00.311Z,23.50
2019-03-23T12:01:31.458Z,19.98
2019-03-23T12:04:02.312Z,24.23
2019-03-23T12:06:33.181Z,24.37
2019-03-23T12:09:05.505Z,22.32
2019-03-23T12:11:36.436Z,24.37
2019-03-23T12:14:08.363Z,21.42
2019-03-23T12:16:39.233Z,21.90
2019-03-23T12:19:10.203Z,21.00
2019-03-23T12:21:41.246Z,19.12
2019-03-23T12:24:12.110Z,23.85
2019-03-23T12:26:43.025Z,23.17
2019-03-23T12:29:13.912Z,23.75
2019-03-23T12:31:44.790Z,23.35
2019-03-23T12:34:15.826Z,24.05
2019-03-23T12:36:46.753Z,23.62
2019-03-23T12:39:17.642Z,23.27
2019-03-23T12:41:48.480Z,22.80
2019-03-23T12:44:19.356Z,24.63
2019-03-23T12:46:50.199Z,23.95
2019-03-23T12:49:21.077Z,25.05
2019-03-23T12:51:51.960Z,27.82
2019-03-23T12:54:22.985Z,25.92
2019-03-23T12:56:54.050Z,23.55
2019-03-23T12:59:25.006Z,22.93
2019-03-23T13:01:55.946Z,22.55
2019-03-23T13:04:26.804Z,23.32
2019-03-23T13:06:57.692Z,20.75
2019-03-23T13:09:28.561Z,24.72
2019-03-23T13:11:59.459Z,21.50
2019-03-23T13:14:31.263Z,23.10
2019-03-23T13:17:02.175Z,26.87
2019-03-23T13:19:33.012Z,23.07
2019-03-23T13:22:03.925Z,26.27
2019-03-23T13:24:34.902Z,23.83
2019-03-23T13:27:05.966Z,25.75
2019-03-23T13:29:36.804Z,27.73
2019-03-23T13:32:07.779Z,25.95
2019-03-23T13:34:40.027Z,31.30
2019-03-23T13:37:10.913Z,29.45
2019-03-23T13:39:41.811Z,29.25
2019-03-23T13:42:12.889Z,25.82
2019-03-23T13:44:43.766Z,24.77
2019-03-23T13:47:14.668Z,27.25
2019-03-23T13:49:45.513Z,30.10
2019-03-23T13:52:16.609Z,32.30
2019-03-23T13:54:47.456Z,29.48
2019-03-23T13:57:18.382Z,28.52
2019-03-23T13:59:49.321Z,25.57
2019-03-23T14:02:20.332Z,32.55
2019-03-23T14:04:51.215Z,32.95
2019-03-23T14:07:22.100Z,30.62
2019-03-23T14:09:53.288Z,32.33
2019-03-23T14:12:24.192Z,34.43
2019-03-23T14:14:55.187Z,26.48
2019-03-23T14:17:26.092Z,30.92
2019-03-23T14:19:57.049Z,26.57
2019-03-23T14:22:28.105Z,33.25
2019-03-23T14:24:58.952Z,30.10
2019-03-23T14:27:29.873Z,29.40
2019-03-23T14:30:02.030Z,29.20
2019-03-23T14:32:37.619Z,27.35
2019-03-23T14:35:09.359Z,33.88
2019-03-23T14:37:44.209Z,35.05
2019-03-23T14:40:15.076Z,30.05
2019-03-23T14:42:45.935Z,34.77
2019-03-23T14:45:16.963Z,27.13
2019-03-23T14:47:48.000Z,29.97
2019-03-23T14:50:18.875Z,31.93
2019-03-23T14:52:50.043Z,29.73
2019-03-23T14:55:21.050Z,28.45
2019-03-23T14:57:52.073Z,31.77
2019-03-23T15:00:33.327Z,38.88
2019-03-23T15:03:04.441Z,28.30
2019-03-23T15:05:36.469Z,29.48
2019-03-23T15:08:07.479Z,30.08
2019-03-23T15:10:38.399Z,27.07
2019-03-23T15:13:09.491Z,27.22
2019-03-23T15:15:40.481Z,30.00
2019-03-23T15:18:12.447Z,29.42
2019-03-23T15:20:44.284Z,26.00
2019-03-23T15:23:15.178Z,29.65
2019-03-23T15:25:46.216Z,29.82
2019-03-23T15:28:17.061Z,25.95
2019-03-23T15:30:47.961Z,30.40
2019-03-23T15:33:18.851Z,29.10
2019-03-23T15:35:49.710Z,28.67
2019-03-23T15:38:20.573Z,26.20
2019-03-23T15:40:51.426Z,28.95
2019-03-23T15:43:22.283Z,26.50
2019-03-23T15:45:53.128Z,30.08
2019-03-23T15:48:24.975Z,26.85
2019-03-23T15:50:55.820Z,26.68
2019-03-23T15:53:26.690Z,26.10
2019-03-23T15:55:57.526Z,26.45
2019-03-23T15:58:28.483Z,29.07
2019-03-23T16:00:59.338Z,26.90
2019-03-23T16:03:30.228Z,29.20
2019-03-23T16:06:01.074Z,28.77
2019-03-23T16:08:31.998Z,35.85
2019-03-23T16:11:02.845Z,33.83
2019-03-23T16:13:33.836Z,31.93
2019-03-23T16:16:04.727Z,27.70
2019-03-23T16:18:35.668Z,30.27
2019-03-23T16:21:06.516Z,28.50
2019-03-23T16:23:37.516Z,32.30
2019-03-23T16:26:08.441Z,28.62
2019-03-23T16:28:39.362Z,32.88
2019-03-23T16:31:10.257Z,41.33
2019-03-23T16:33:41.249Z,32.42
2019-03-23T16:36:12.160Z,38.00
2019-03-23T16:38:43.134Z,28.62
2019-03-23T16:41:13.957Z,30.17
2019-03-23T16:43:44.865Z,33.93
2019-03-23T16:46:15.704Z,31.07
2019-03-23T16:48:46.585Z,33.23
2019-03-23T16:51:17.957Z,30.53
2019-03-23T16:53:49.606Z,30.83
2019-03-23T16:56:20.448Z,33.23
2019-03-23T16:58:51.403Z,29.37
2019-03-23T17:01:22.455Z,32.27
2019-03-23T17:03:53.385Z,35.10
2019-03-23T17:06:24.641Z,34.80
2019-03-23T17:08:56.648Z,35.50
2019-03-23T17:11:27.602Z,37.23
2019-03-23T17:13:58.893Z,36.27
2019-03-23T17:16:29.828Z,34.77
2019-03-23T17:19:00.802Z,32.80
2019-03-23T17:21:32.003Z,33.43
2019-03-23T17:24:02.967Z,34.63
2019-03-23T17:26:34.116Z,34.93
2019-03-23T17:29:05.411Z,33.97
2019-03-23T17:31:39.811Z,33.93
2019-03-23T17:34:10.831Z,32.60
2019-03-23T17:36:41.985Z,35.00
2019-03-23T17:39:12.904Z,37.23
2019-03-23T17:41:44.100Z,35.03
2019-03-23T17:44:15.074Z,43.43
2019-03-23T17:46:46.038Z,40.13
2019-03-23T17:49:17.410Z,39.50
2019-03-23T17:51:48.418Z,39.70
2019-03-23T17:54:19.798Z,38.97
2019-03-23T17:56:51.012Z,44.83
2019-03-23T17:59:22.139Z,57.53
2019-03-23T18:01:53.020Z,47.53
2019-03-23T18:04:25.014Z,48.93
2019-03-23T18:06:56.229Z,47.30
2019-03-23T18:09:27.131Z,52.83
2019-03-23T18:11:57.987Z,61.43
2019-03-23T18:14:28.859Z,64.63
2019-03-23T18:16:59.692Z,57.10
2019-03-23T18:19:30.556Z,50.30
2019-03-23T18:22:01.403Z,67.63
2019-03-23T18:24:32.264Z,49.77
2019-03-23T18:27:04.526Z,48.10
2019-03-23T18:29:35.498Z,42.57
2019-03-23T18:32:06.376Z,43.97
2019-03-23T18:34:37.333Z,43.93
2019-03-23T18:37:08.812Z,43.03
2019-03-23T18:39:39.674Z,47.17
2019-03-23T18:42:10.521Z,43.37
2019-03-23T18:44:41.460Z,45.10
2019-03-23T18:47:12.315Z,43.83
2019-03-23T18:49:43.269Z,43.50
2019-03-23T18:52:14.108Z,48.63
2019-03-23T18:54:46.343Z,46.20
2019-03-23T18:57:17.191Z,46.37
2019-03-23T18:59:48.078Z,43.63
2019-03-23T19:02:19.048Z,45.60
2019-03-23T19:04:50.050Z,39.87
2019-03-23T19:07:20.918Z,42.07
2019-03-23T19:09:53.397Z,40.33
2019-03-23T19:12:24.230Z,37.80
2019-03-23T19:14:55.094Z,34.57
2019-03-23T19:17:25.954Z,31.47
2019-03-23T19:19:56.928Z,31.93
2019-03-23T19:22:27.765Z,29.20
2019-03-23T19:24:58.634Z,27.40
2019-03-23T19:27:29.472Z,30.77
2019-03-23T19:30:00.363Z,36.40
2019-03-23T19:32:31.931Z,34.20
2019-03-23T19:35:03.873Z,33.67
2019-03-23T19:37:34.712Z,37.50
2019-03-23T19:40:06.393Z,38.27
2019-03-23T19:42:37.229Z,44.20
2019-03-23T19:45:08.309Z,56.87
2019-03-23T19:47:40.211Z,53.60
2019-03-23T19:50:11.316Z,47.93
2019-03-23T19:52:42.181Z,47.80
2019-03-23T19:55:13.053Z,46.23
2019-03-23T19:57:43.908Z,40.63
2019-03-23T20:00:15.225Z,41.87
2019-03-23T20:02:46.057Z,38.20
2019-03-23T20:05:16.949Z,39.97
2019-03-23T20:07:47.876Z,44.27
2019-03-23T20:10:19.677Z,45.33
2019-03-23T20:12:50.969Z,49.67
2019-03-23T20:15:22.002Z,47.50
2019-03-23T20:17:53.056Z,45.90
2019-03-23T20:20:24.158Z,52.10
2019-03-23T20:22:55.112Z,53.60
2019-03-23T20:25:26.028Z,57.43
2019-03-23T20:27:57.262Z,61.30
2019-03-23T20:30:29.061Z,72.40
2019-03-23T20:33:00.111Z,72.10
2019-03-23T20:35:31.953Z,77.00
2019-03-23T20:38:02.798Z,82.15
2019-03-23T20:40:33.803Z,80.30
2019-03-23T20:43:04.620Z,83.90
2019-03-23T20:45:35.496Z,87.97
2019-03-23T20:48:06.446Z,90.50
2019-03-23T20:50:38.798Z,92.30
2019-03-23T20:53:09.632Z,90.70
2019-03-23T20:55:40.569Z,88.40
2019-03-23T20:58:11.615Z,91.57
2019-03-23T21:00:42.844Z,93.63
2019-03-23T21:03:13.666Z,98.27
2019-03-23T21:05:44.572Z,98.63
2019-03-23T21:08:15.420Z,97.07
2019-03-23T21:10:46.293Z,100.83
2019-03-23T21:13:17.167Z,103.53
2019-03-23T21:15:48.054Z,100.77
2019-03-23T21:18:21.942Z,101.37
2019-03-23T21:20:53.905Z,100.97
2019-03-23T21:23:28.517Z,105.43
2019-03-23T21:25:59.375Z,107.90
2019-03-23T21:28:30.216Z,109.13
2019-03-23T21:31:01.091Z,108.33
2019-03-23T21:33:36.070Z,111.03
2019-03-23T21:36:04.606Z,112.00
2019-03-23T21:38:35.530Z,112.93
2019-03-23T21:41:06.537Z,112.93
2019-03-23T21:43:37.379Z,118.83
2019-03-23T21:46:08.269Z,118.13
2019-03-23T21:48:39.123Z,125.07
2019-03-23T21:51:09.976Z,122.27
2019-03-23T21:53:40.835Z,121.60
2019-03-23T21:56:11.708Z,130.20
2019-03-23T21:58:42.646Z,130.83
2019-03-23T22:01:13.548Z,133.53
2019-03-23T22:03:45.024Z,126.67
2019-03-23T22:06:15.874Z,130.97
2019-03-23T22:08:46.737Z,125.53
2019-03-23T22:11:17.582Z,131.97
2019-03-23T22:13:48.451Z,132.73
2019-03-23T22:16:19.286Z,126.47
2019-03-23T22:18:50.150Z,134.43
2019-03-23T22:21:20.995Z,134.13
2019-03-23T22:23:51.892Z,136.07
2019-03-23T22:26:22.750Z,132.97
2019-03-23T22:28:53.620Z,134.13
2019-03-23T22:31:24.652Z,139.40
2019-03-23T22:33:55.535Z,143.50
2019-03-23T22:36:27.522Z,128.50
2019-03-23T22:38:58.399Z,136.00
2019-03-23T22:41:29.584Z,140.87
2019-03-23T22:44:00.877Z,140.47
2019-03-23T22:46:31.814Z,138.53
2019-03-23T22:49:03.397Z,143.67
2019-03-23T22:51:34.247Z,143.60
2019-03-23T22:54:05.129Z,150.53
2019-03-23T22:56:35.993Z,139.07
2019-03-23T22:59:06.860Z,143.43
2019-03-23T23:01:37.897Z,144.85
2019-03-23T23:04:08.822Z,142.97
2019-03-23T23:06:39.694Z,144.30
2019-03-23T23:09:11.303Z,142.07
2019-03-23T23:11:42.166Z,148.93
2019-03-23T23:14:14.891Z,146.23
2019-03-23T23:16:45.766Z,147.62
2019-03-23T23:19:16.940Z,143.90
2019-03-23T23:21:49.087Z,146.80
2019-03-23T23:24:20.198Z,141.63
2019-03-23T23:26:53.425Z,155.10
2019-03-23T23:29:24.285Z,157.17
2019-03-23T23:31:55.154Z,156.40
2019-03-23T23:34:26.269Z,157.43
2019-03-23T23:36:57.219Z,149.93
2019-03-23T23:39:28.393Z,156.97
2019-03-23T23:41:59.725Z,156.70
2019-03-23T23:44:30.596Z,153.13
2019-03-23T23:47:01.467Z,153.50
2019-03-23T23:49:32.413Z,157.97
2019-03-23T23:52:03.255Z,161.40
2019-03-23T23:54:34.424Z,151.10
2019-03-23T23:57:05.312Z,156.83
2019-03-23T23:59:36.440Z,165.18
